Time;durP1;ratioP1;P1;durP2;ratioP2;P2;SDS_P1;SDS_P2;PMS_P1;PMS_P2;Temp;Humidity;BMP_temperature;BMP_pressure;BME280_temperature;BME280_humidity;BME280_pressure;Samples;Min_cycle;Max_cycle;Signal;HPM_P1;HPM_P2
2022/04/12 02:48:09;;;;;;;9.23;7.70;;;;;;;;;;4934973;28;92433;-83
2022/04/12 02:50:57;;;;;;;9.93;7.77;;;;;;;;;;4943347;28;92319;-82
2022/04/12 02:53:44;;;;;;;10.97;8.23;;;;;;;;;;4942435;28;93721;-84
2022/04/12 02:56:35;;;;;;;10.30;8.33;;;;;;;;;;4943929;28;91397;-81
2022/04/12 02:59:22;;;;;;;9.47;8.47;;;;;;;;;;4928732;28;91607;-82
2022/04/12 10:52:08;;;;;;;617.90;580.17;;;;;;;;;;5083020;23;96507;-92
2022/04/12 10:54:57;;;;;;;608.43;570.43;;;;;;;;;;4916378;28;92366;-91
2022/04/12 10:57:44;;;;;;;494.53;463.07;;;;;;;;;;4935341;28;92495;-92
2022/04/12 11:00:34;;;;;;;382.43;361.30;;;;;;;;;;4915381;28;92562;-91
2022/04/12 11:03:26;;;;;;;70.90;67.10;;;;;;;;;;4868254;28;92730;-91
2022/04/12 11:06:26;;;;;;;560.47;522.13;;;;;;;;;;4859565;29;92501;-92
2022/04/12 11:09:16;;;;;;;595.03;555.07;;;;;;;;;;4855652;29;91514;-92
2022/04/12 11:12:03;;;;;;;685.10;641.87;;;;;;;;;;4854565;28;92724;-92
2022/04/12 11:15:10;;;;;;;607.73;551.43;;;;;;;;;;4859767;28;92644;-90
2022/04/12 11:18:22;;;;;;;314.40;297.90;;;;;;;;;;4859393;28;94673;-92
2022/04/12 11:21:09;;;;;;;107.53;101.73;;;;;;;;;;4863698;28;92461;-92
2022/04/12 11:24:01;;;;;;;125.03;118.83;;;;;;;;;;4863401;28;92767;-92
2022/04/12 11:26:50;;;;;;;401.20;378.97;;;;;;;;;;4849876;28;92362;-91
2022/04/12 11:29:38;;;;;;;609.80;568.77;;;;;;;;;;4889553;28;92308;-92
2022/04/12 11:32:25;;;;;;;507.43;474.37;;;;;;;;;;4896365;28;92682;-92
2022/04/12 11:35:12;;;;;;;532.17;496.73;;;;;;;;;;4937549;28;92833;-92
2022/04/12 11:37:59;;;;;;;395.10;369.13;;;;;;;;;;4948787;28;91806;-92
2022/04/12 11:40:45;;;;;;;438.70;410.40;;;;;;;;;;4921246;28;92538;-92
2022/04/12 11:43:32;;;;;;;591.53;555.03;;;;;;;;;;4939386;28;94101;-93
2022/04/12 11:46:19;;;;;;;359.90;339.17;;;;;;;;;;4935683;28;94645;-93
2022/04/12 11:49:10;;;;;;;213.23;200.77;;;;;;;;;;4929091;28;95635;-92
2022/04/12 11:51:58;;;;;;;379.23;356.10;;;;;;;;;;4939245;28;92383;-92
2022/04/12 11:54:47;;;;;;;150.00;139.03;;;;;;;;;;4927580;28;92564;-92
2022/04/12 11:57:33;;;;;;;355.67;333.10;;;;;;;;;;4919695;28;92740;-92
2022/04/12 12:00:24;;;;;;;198.13;187.43;;;;;;;;;;4936165;28;92619;-92
2022/04/12 12:03:18;;;;;;;258.90;243.77;;;;;;;;;;4951179;28;92225;-91
2022/04/12 12:06:04;;;;;;;286.27;271.00;;;;;;;;;;4942274;28;91936;-92
2022/04/12 12:08:51;;;;;;;179.87;169.90;;;;;;;;;;4941858;28;92771;-92
2022/04/12 12:11:39;;;;;;;145.40;136.37;;;;;;;;;;4941863;28;92411;-91
2022/04/12 12:14:27;;;;;;;26.93;25.27;;;;;;;;;;4940797;28;95107;-91
2022/04/12 12:17:18;;;;;;;167.07;156.70;;;;;;;;;;4956635;28;92273;-91
2022/04/12 12:20:07;;;;;;;253.70;237.40;;;;;;;;;;4939767;28;92527;-90
2022/04/12 12:22:56;;;;;;;33.47;31.40;;;;;;;;;;4936280;28;92370;-92
2022/04/12 12:25:44;;;;;;;280.20;265.00;;;;;;;;;;4931676;28;92360;-89
2022/04/12 12:28:31;;;;;;;53.00;49.77;;;;;;;;;;4956815;28;92346;-91
2022/04/12 12:31:18;;;;;;;131.67;122.80;;;;;;;;;;4945665;28;92978;-91
2022/04/12 12:34:04;;;;;;;36.57;34.17;;;;;;;;;;4922504;28;92091;-91
2022/04/12 12:36:51;;;;;;;534.03;499.93;;;;;;;;;;4935440;28;92259;-92
2022/04/12 12:39:39;;;;;;;296.90;276.07;;;;;;;;;;4939003;28;92351;-90
2022/04/12 12:42:34;;;;;;;271.60;252.30;;;;;;;;;;4946573;28;94747;-90
2022/04/12 12:45:22;;;;;;;443.10;413.80;;;;;;;;;;4935118;28;95660;-91
2022/04/12 12:48:10;;;;;;;403.30;372.37;;;;;;;;;;4926478;28;92725;-91
2022/04/12 12:50:57;;;;;;;219.53;207.07;;;;;;;;;;4891136;28;1198654;-89
2022/04/12 12:53:43;;;;;;;59.67;56.33;;;;;;;;;;4956758;28;92741;-91
2022/04/12 12:56:34;;;;;;;271.37;258.03;;;;;;;;;;4939266;28;92641;-90
2022/04/12 12:59:21;;;;;;;121.90;115.77;;;;;;;;;;4930580;28;92582;-90
2022/04/12 13:02:10;;;;;;;170.17;159.03;;;;;;;;;;4939955;28;91697;-91
2022/04/12 13:04:56;;;;;;;245.30;228.00;;;;;;;;;;4929002;28;92599;-90
2022/04/12 13:07:43;;;;;;;389.00;365.30;;;;;;;;;;4949935;28;92688;-92
2022/04/12 13:10:35;;;;;;;44.40;41.37;;;;;;;;;;4930566;28;94732;-91
2022/04/12 13:13:22;;;;;;;361.10;334.37;;;;;;;;;;4943503;28;93165;-91
2022/04/12 13:16:08;;;;;;;306.40;290.07;;;;;;;;;;4947968;28;92280;-90
2022/04/12 13:19:02;;;;;;;40.30;37.67;;;;;;;;;;4926354;28;92728;-90
2022/04/12 13:21:49;;;;;;;73.70;69.70;;;;;;;;;;4955062;28;93880;-92
2022/04/12 13:24:36;;;;;;;337.83;318.77;;;;;;;;;;4940765;28;92199;-92
2022/04/12 13:27:23;;;;;;;73.23;69.53;;;;;;;;;;4948064;28;92996;-88
2022/04/12 13:30:10;;;;;;;11.33;10.43;;;;;;;;;;4922641;28;92439;-90
2022/04/12 13:32:57;;;;;;;437.03;410.43;;;;;;;;;;4934576;28;92258;-90
2022/04/12 13:35:43;;;;;;;192.17;181.63;;;;;;;;;;4923387;28;92745;-91
2022/04/12 13:38:30;;;;;;;71.93;67.83;;;;;;;;;;4920393;28;96543;-91
2022/04/12 13:41:17;;;;;;;34.90;32.47;;;;;;;;;;4948163;28;93989;-89
2022/04/12 13:44:04;;;;;;;21.00;19.57;;;;;;;;;;4952238;28;92508;-90
2022/04/12 13:46:53;;;;;;;461.70;437.43;;;;;;;;;;4951454;28;92677;-89
2022/04/12 13:49:40;;;;;;;108.47;101.70;;;;;;;;;;4935317;28;92434;-89
2022/04/12 13:52:27;;;;;;;112.70;102.27;;;;;;;;;;4921953;28;92881;-89
2022/04/12 13:55:13;;;;;;;463.43;436.73;;;;;;;;;;4955128;28;92344;-90
2022/04/12 13:58:00;;;;;;;355.00;335.00;;;;;;;;;;4942127;28;91557;-90
2022/04/12 14:00:47;;;;;;;80.70;76.57;;;;;;;;;;4946973;28;92671;-90
2022/04/12 14:03:34;;;;;;;483.70;458.97;;;;;;;;;;4922274;28;92668;-90
2022/04/12 14:06:20;;;;;;;200.80;188.87;;;;;;;;;;4921915;28;95069;-90
2022/04/12 14:09:07;;;;;;;100.43;93.30;;;;;;;;;;4930927;28;92447;-89
2022/04/12 14:11:54;;;;;;;329.60;314.10;;;;;;;;;;4953295;28;92395;-90
2022/04/12 14:14:41;;;;;;;165.23;157.20;;;;;;;;;;4921661;28;92668;-90
2022/04/12 14:17:27;;;;;;;471.43;434.40;;;;;;;;;;4932483;28;92479;-90
2022/04/12 14:20:14;;;;;;;326.27;307.00;;;;;;;;;;4936174;28;92224;-90
2022/04/12 14:23:00;;;;;;;574.07;538.03;;;;;;;;;;4954833;28;93161;-89
2022/04/12 14:25:47;;;;;;;191.33;180.03;;;;;;;;;;4951050;28;92704;-89
2022/04/12 14:28:34;;;;;;;212.17;202.23;;;;;;;;;;4937818;28;94054;-89
2022/04/12 14:31:21;;;;;;;212.37;203.27;;;;;;;;;;4936621;28;92358;-88
2022/04/12 14:34:08;;;;;;;128.00;122.07;;;;;;;;;;4933024;28;95743;-91
2022/04/12 14:36:55;;;;;;;439.90;414.20;;;;;;;;;;4923904;28;95010;-90
2022/04/12 14:39:43;;;;;;;349.97;324.60;;;;;;;;;;4934984;28;92325;-90
2022/04/12 14:42:29;;;;;;;149.77;140.03;;;;;;;;;;4931959;28;92832;-89
2022/04/12 14:45:16;;;;;;;338.13;319.20;;;;;;;;;;4939835;28;92831;-89
2022/04/12 14:48:03;;;;;;;352.00;330.97;;;;;;;;;;4935461;28;92489;-91
2022/04/12 14:50:50;;;;;;;525.20;494.37;;;;;;;;;;4920877;28;92535;-88
2022/04/12 14:53:37;;;;;;;567.97;533.97;;;;;;;;;;4934370;28;92278;-92
2022/04/12 14:56:24;;;;;;;214.93;204.20;;;;;;;;;;4934024;28;92704;-93
2022/04/12 14:59:12;;;;;;;608.83;567.93;;;;;;;;;;4947044;28;93128;-95
2022/04/12 15:01:59;;;;;;;153.83;144.67;;;;;;;;;;4932296;28;94793;-93
2022/04/12 15:04:47;;;;;;;506.70;475.93;;;;;;;;;;4946319;28;92267;-93
2022/04/12 15:07:34;;;;;;;316.60;301.07;;;;;;;;;;4923948;28;92664;-91
2022/04/12 15:10:21;;;;;;;235.17;222.03;;;;;;;;;;4943557;28;93046;-94
2022/04/12 15:13:09;;;;;;;174.60;163.47;;;;;;;;;;4942819;28;92269;-94
2022/04/12 15:15:55;;;;;;;250.53;235.97;;;;;;;;;;4933736;28;92451;-94
2022/04/12 15:18:42;;;;;;;332.63;315.23;;;;;;;;;;4943346;28;92653;-94
2022/04/12 15:21:29;;;;;;;299.27;281.33;;;;;;;;;;4935872;28;92648;-93
2022/04/12 15:24:16;;;;;;;591.70;553.30;;;;;;;;;;4946291;28;92451;-92
2022/04/12 15:27:03;;;;;;;219.97;209.57;;;;;;;;;;4936755;28;92418;-94
2022/04/12 15:29:49;;;;;;;222.37;211.40;;;;;;;;;;4942961;28;95266;-95
2022/04/12 15:32:37;;;;;;;261.53;248.40;;;;;;;;;;4947211;28;94958;-93
2022/04/12 15:35:24;;;;;;;530.80;500.40;;;;;;;;;;4959750;28;92485;-88
2022/04/12 15:38:10;;;;;;;345.00;327.80;;;;;;;;;;4948328;28;92676;-88
2022/04/12 15:40:57;;;;;;;590.23;557.97;;;;;;;;;;4924375;28;92725;-88
2022/04/12 15:43:44;;;;;;;208.63;197.47;;;;;;;;;;4936374;28;92331;-89
2022/04/12 15:46:30;;;;;;;548.27;515.23;;;;;;;;;;4928353;28;92607;-88
2022/04/12 15:49:17;;;;;;;620.73;586.53;;;;;;;;;;4936502;28;91909;-87
2022/04/12 15:52:04;;;;;;;641.10;602.33;;;;;;;;;;4929557;28;92658;-88
2022/04/12 15:54:51;;;;;;;564.63;532.23;;;;;;;;;;4936026;28;92768;-88
2022/04/12 15:57:37;;;;;;;631.53;596.07;;;;;;;;;;4934945;28;95199;-89
2022/04/12 16:00:25;;;;;;;607.27;572.17;;;;;;;;;;4937280;28;92513;-89
2022/04/12 16:03:12;;;;;;;757.50;707.37;;;;;;;;;;4931715;28;93013;-87
2022/04/12 16:05:58;;;;;;;363.80;344.73;;;;;;;;;;4928943;28;92852;-86
2022/04/12 16:08:45;;;;;;;471.13;443.67;;;;;;;;;;4947354;28;92776;-89
2022/04/12 16:11:32;;;;;;;589.00;554.30;;;;;;;;;;4937417;28;93621;-90
2022/04/12 16:14:18;;;;;;;458.27;435.27;;;;;;;;;;4940957;28;92729;-91
2022/04/12 16:17:10;;;;;;;557.60;524.37;;;;;;;;;;4948802;28;92433;-89
2022/04/12 16:19:57;;;;;;;515.93;485.93;;;;;;;;;;4949373;28;92524;-88
2022/04/12 16:22:45;;;;;;;414.93;394.37;;;;;;;;;;4926791;28;92319;-89
2022/04/12 16:25:33;;;;;;;556.23;525.23;;;;;;;;;;4933648;28;95014;-90
2022/04/12 16:28:19;;;;;;;643.37;603.03;;;;;;;;;;4936591;28;96241;-89
2022/04/12 16:31:06;;;;;;;567.90;535.87;;;;;;;;;;4920695;28;92386;-89
2022/04/12 16:33:53;;;;;;;579.73;545.33;;;;;;;;;;4937653;28;92426;-88
2022/04/12 16:36:39;;;;;;;333.90;316.60;;;;;;;;;;4936940;28;93268;-89
2022/04/12 16:39:27;;;;;;;265.37;251.67;;;;;;;;;;4937340;28;92763;-91
2022/04/12 16:42:13;;;;;;;460.20;438.83;;;;;;;;;;4941394;28;92404;-89
2022/04/12 16:45:00;;;;;;;448.23;423.43;;;;;;;;;;4934117;28;91788;-91
2022/04/12 16:47:47;;;;;;;472.03;442.13;;;;;;;;;;4939577;28;92791;-94
2022/04/12 16:50:33;;;;;;;598.37;565.17;;;;;;;;;;4924632;28;93474;-95
2022/04/12 16:53:20;;;;;;;452.87;430.17;;;;;;;;;;4937280;28;94661;-95
2022/04/12 16:56:07;;;;;;;293.67;279.37;;;;;;;;;;4941913;28;92255;-91
2022/04/12 16:58:53;;;;;;;511.50;482.63;;;;;;;;;;4945406;28;92269;-90
2022/04/12 17:01:40;;;;;;;369.37;352.03;;;;;;;;;;4945295;28;92884;-91
2022/04/12 17:04:27;;;;;;;496.83;469.70;;;;;;;;;;4937720;28;92330;-91
2022/04/12 17:07:13;;;;;;;222.73;212.23;;;;;;;;;;4925406;28;92302;-91
2022/04/12 17:10:00;;;;;;;500.70;472.73;;;;;;;;;;4940471;28;92408;-88
2022/04/12 17:12:47;;;;;;;429.47;407.00;;;;;;;;;;4935966;28;92558;-90
2022/04/12 17:15:34;;;;;;;484.10;456.77;;;;;;;;;;4937043;28;92319;-91
2022/04/12 17:18:21;;;;;;;491.77;464.80;;;;;;;;;;4941240;28;92558;-91
2022/04/12 17:21:08;;;;;;;595.93;562.70;;;;;;;;;;4952280;28;95353;-91
2022/04/12 17:23:54;;;;;;;421.50;401.30;;;;;;;;;;4941774;28;94047;-91
2022/04/12 17:26:41;;;;;;;542.93;508.03;;;;;;;;;;4941584;28;92695;-89
2022/04/12 17:29:28;;;;;;;643.70;602.83;;;;;;;;;;4955848;28;92335;-91
2022/04/12 17:32:15;;;;;;;499.10;470.93;;;;;;;;;;4958752;28;92452;-93
2022/04/12 17:35:02;;;;;;;559.40;525.97;;;;;;;;;;4955343;28;92373;-92
2022/04/12 17:37:56;;;;;;;468.03;444.33;;;;;;;;;;5077176;23;96064;-89
2022/04/12 17:40:44;;;;;;;464.73;441.40;;;;;;;;;;5163926;23;92524;-86
2022/04/12 17:43:33;;;;;;;526.03;497.83;;;;;;;;;;4947964;23;94003;-87
2022/04/12 17:46:20;;;;;;;476.00;447.57;;;;;;;;;;5080019;23;94067;-90
2022/04/12 17:49:07;;;;;;;536.00;506.60;;;;;;;;;;4971792;23;96427;-87
2022/04/12 17:51:55;;;;;;;597.00;559.57;;;;;;;;;;4986343;23;92483;-88
2022/04/12 17:54:41;;;;;;;621.27;584.10;;;;;;;;;;5095020;23;93901;-86
2022/04/12 18:00:11;;;;;;;506.60;475.30;;;;;;;;;;5080667;23;93122;-87
2022/04/12 18:03:13;;;;;;;567.77;533.63;;;;;;;;;;5058007;23;92042;-88
2022/04/12 18:06:04;;;;;;;642.07;600.97;;;;;;;;;;5582477;23;97198;-83
2022/04/12 18:08:49;;;;;;;704.77;655.57;;;;;;;;;;5074921;23;93784;-82
2022/04/12 18:11:35;;;;;;;557.77;526.60;;;;;;;;;;4957575;28;92355;-83
2022/04/12 18:14:23;;;;;;;614.50;577.13;;;;;;;;;;5456237;23;93440;-81
2022/04/12 18:17:10;;;;;;;677.50;634.27;;;;;;;;;;5091970;23;95256;-81
2022/04/12 18:19:54;;;;;;;627.13;589.27;;;;;;;;;;5956924;23;96562;-83
2022/04/12 18:22:43;;;;;;;545.03;514.87;;;;;;;;;;5575452;22;93909;-83
2022/04/12 18:30:43;;;;;;;564.37;533.47;;;;;;;;;;5947891;22;94180;-80
2022/04/12 18:55:00;;;;;;;627.20;585.20;;;;;;;;;;5518977;22;96788;-81
2022/04/12 19:21:34;;;;;;;648.60;606.47;;;;;;;;;;5232138;22;93619;-84
2022/04/12 19:24:21;;;;;;;552.17;520.43;;;;;;;;;;4982956;28;92078;-84
2022/04/12 19:30:32;;;;;;;508.57;478.30;;;;;;;;;;4963943;28;90786;-86
2022/04/12 19:42:59;;;;;;;522.23;492.47;;;;;;;;;;4962884;28;91452;-84
2022/04/12 19:48:25;;;;;;;470.43;444.93;;;;;;;;;;5232207;23;93826;-84
2022/04/12 19:51:12;;;;;;;432.87;411.37;;;;;;;;;;5151453;22;92743;-84
2022/04/12 19:56:35;;;;;;;479.07;453.03;;;;;;;;;;5162898;22;92895;-85
2022/04/12 19:59:25;;;;;;;538.40;505.90;;;;;;;;;;4963860;28;91596;-82
2022/04/12 20:02:18;;;;;;;774.57;715.37;;;;;;;;;;4963926;28;92080;-84
2022/04/12 20:05:09;;;;;;;578.97;546.73;;;;;;;;;;4984451;28;93119;-85
2022/04/12 20:07:56;;;;;;;490.03;462.10;;;;;;;;;;4966958;28;94357;-85
2022/04/12 20:10:44;;;;;;;455.57;431.43;;;;;;;;;;4954571;28;93825;-84
2022/04/12 20:13:33;;;;;;;560.63;526.00;;;;;;;;;;4963606;28;91351;-82
2022/04/12 20:16:20;;;;;;;500.43;472.80;;;;;;;;;;4965487;28;91554;-84
2022/04/12 20:19:10;;;;;;;377.57;357.03;;;;;;;;;;4977519;28;91595;-84
2022/04/12 20:21:57;;;;;;;536.87;498.50;;;;;;;;;;4961866;28;91519;-85
2022/04/12 20:24:44;;;;;;;518.87;489.43;;;;;;;;;;4971902;28;91396;-84
2022/04/12 20:27:31;;;;;;;564.47;530.27;;;;;;;;;;4954023;28;91247;-82
2022/04/12 20:30:41;;;;;;;526.37;498.37;;;;;;;;;;5233085;23;93450;-84
2022/04/12 20:33:28;;;;;;;558.67;522.93;;;;;;;;;;4961624;28;92005;-84
2022/04/12 20:36:15;;;;;;;467.87;439.07;;;;;;;;;;5173116;22;96486;-82
2022/04/12 20:39:05;;;;;;;590.43;554.67;;;;;;;;;;4981962;28;91434;-82
2022/04/12 20:41:52;;;;;;;511.57;481.80;;;;;;;;;;4981359;28;92043;-83
2022/04/12 20:44:39;;;;;;;461.43;436.83;;;;;;;;;;4949192;28;92140;-84
2022/04/12 20:47:26;;;;;;;471.07;445.50;;;;;;;;;;4949693;28;92105;-83
2022/04/12 20:50:16;;;;;;;520.00;488.03;;;;;;;;;;4963546;28;91415;-84
2022/04/12 20:53:12;;;;;;;462.40;435.77;;;;;;;;;;5073347;23;93946;-85
2022/04/12 20:55:57;;;;;;;505.73;476.90;;;;;;;;;;5052200;22;92961;-83
2022/04/12 21:01:23;;;;;;;558.53;523.03;;;;;;;;;;5040607;23;93849;-84
2022/04/12 21:04:09;;;;;;;521.13;489.73;;;;;;;;;;4960218;28;94740;-84
2022/04/12 21:09:32;;;;;;;492.87;465.10;;;;;;;;;;5802763;23;92664;-84
2022/04/12 21:12:19;;;;;;;666.57;627.33;;;;;;;;;;4968662;28;91512;-84
2022/04/12 21:15:06;;;;;;;495.37;470.30;;;;;;;;;;4964702;28;92037;-86
2022/04/12 21:17:53;;;;;;;489.87;462.00;;;;;;;;;;4968330;28;92206;-85
2022/04/12 21:20:40;;;;;;;491.57;466.17;;;;;;;;;;4980022;28;92271;-85
2022/04/12 21:23:32;;;;;;;560.00;531.80;;;;;;;;;;4948277;28;91461;-85
2022/04/12 21:26:20;;;;;;;482.10;455.50;;;;;;;;;;4949984;28;92354;-85
2022/04/12 21:29:07;;;;;;;497.13;470.50;;;;;;;;;;4948097;28;92561;-85
2022/04/12 21:31:54;;;;;;;461.07;435.87;;;;;;;;;;4953380;28;94356;-84
2022/04/12 21:34:40;;;;;;;585.57;553.23;;;;;;;;;;4967843;28;92348;-84
2022/04/12 21:37:27;;;;;;;440.67;417.50;;;;;;;;;;4967138;28;92476;-84
2022/04/12 21:40:15;;;;;;;455.07;433.03;;;;;;;;;;4980096;28;92724;-84
2022/04/12 21:43:02;;;;;;;468.33;441.93;;;;;;;;;;4979691;28;91425;-84
2022/04/12 21:45:49;;;;;;;463.00;442.50;;;;;;;;;;4966416;28;92250;-84
2022/04/12 21:48:36;;;;;;;351.73;335.97;;;;;;;;;;4947034;28;92132;-84
2022/04/12 21:51:33;;;;;;;436.50;416.27;;;;;;;;;;4952049;28;91571;-83
2022/04/12 21:54:20;;;;;;;322.43;308.37;;;;;;;;;;4958208;28;91965;-84
2022/04/12 21:57:07;;;;;;;516.97;491.30;;;;;;;;;;4976830;28;92329;-84
2022/04/12 21:59:54;;;;;;;451.33;430.27;;;;;;;;;;4959211;28;94701;-84
2022/04/12 22:02:41;;;;;;;400.17;381.47;;;;;;;;;;4961198;28;93911;-84
2022/04/12 22:05:28;;;;;;;486.13;462.80;;;;;;;;;;4950792;28;92252;-84
2022/04/12 22:08:14;;;;;;;397.43;378.90;;;;;;;;;;4980229;28;91463;-84
2022/04/12 22:11:01;;;;;;;413.60;394.87;;;;;;;;;;4953741;28;92165;-84
2022/04/12 22:13:48;;;;;;;472.97;450.23;;;;;;;;;;4967047;28;92376;-84
2022/04/12 22:16:35;;;;;;;470.27;450.27;;;;;;;;;;4981444;28;92116;-85
2022/04/12 22:19:22;;;;;;;541.87;516.17;;;;;;;;;;4968997;28;91321;-84
2022/04/12 22:22:10;;;;;;;422.00;404.67;;;;;;;;;;4965259;28;92695;-84
2022/04/12 22:24:56;;;;;;;503.53;480.20;;;;;;;;;;4966245;28;92315;-85
2022/04/12 22:27:43;;;;;;;437.50;413.20;;;;;;;;;;4979867;28;94621;-84
2022/04/12 22:30:30;;;;;;;417.37;398.57;;;;;;;;;;4966810;28;92133;-84
2022/04/12 22:33:19;;;;;;;603.53;576.37;;;;;;;;;;4946795;28;92044;-84
2022/04/12 22:36:07;;;;;;;481.77;460.17;;;;;;;;;;4946446;28;92778;-82
2022/04/12 22:38:54;;;;;;;822.73;755.97;;;;;;;;;;4966996;28;91383;-84
2022/04/12 22:41:41;;;;;;;442.47;423.37;;;;;;;;;;4966627;28;92151;-84
2022/04/12 22:44:28;;;;;;;469.77;449.90;;;;;;;;;;4963079;28;92181;-83
2022/04/12 22:47:15;;;;;;;533.17;509.13;;;;;;;;;;4965967;28;91535;-84
2022/04/12 22:50:06;;;;;;;405.07;386.23;;;;;;;;;;4965396;28;92052;-82
2022/04/12 22:52:55;;;;;;;521.93;497.37;;;;;;;;;;4959899;28;92212;-83
2022/04/12 22:55:42;;;;;;;531.30;504.83;;;;;;;;;;4958446;28;95299;-83
2022/04/12 22:58:28;;;;;;;370.57;354.97;;;;;;;;;;4976025;28;93977;-83
2022/04/12 23:01:16;;;;;;;395.53;377.83;;;;;;;;;;4952715;28;91345;-84
2022/04/12 23:04:04;;;;;;;365.73;349.87;;;;;;;;;;4964909;28;92015;-83
2022/04/12 23:06:50;;;;;;;537.60;510.27;;;;;;;;;;4949744;28;92406;-84
2022/04/12 23:09:56;;;;;;;502.33;478.10;;;;;;;;;;4960369;28;92208;-83
2022/04/12 23:12:42;;;;;;;339.57;319.97;;;;;;;;;;4960766;28;92132;-84
2022/04/12 23:15:29;;;;;;;300.87;287.83;;;;;;;;;;4970307;28;90807;-84
2022/04/12 23:18:16;;;;;;;465.37;439.83;;;;;;;;;;4948449;28;92282;-83
2022/04/12 23:21:04;;;;;;;452.47;431.97;;;;;;;;;;4954261;28;91647;-83
2022/04/12 23:23:54;;;;;;;520.17;495.13;;;;;;;;;;4977057;28;94805;-83
2022/04/12 23:26:41;;;;;;;351.33;329.77;;;;;;;;;;4965042;28;92184;-83
2022/04/12 23:29:27;;;;;;;447.67;428.77;;;;;;;;;;4960546;28;91495;-84
2022/04/12 23:32:14;;;;;;;391.40;375.40;;;;;;;;;;4959717;28;91894;-84
2022/04/12 23:35:01;;;;;;;188.03;180.03;;;;;;;;;;4949463;28;91356;-84
2022/04/12 23:40:32;;;;;;;654.00;617.93;;;;;;;;;;5641790;23;93847;-84
2022/04/12 23:43:24;;;;;;;373.17;353.63;;;;;;;;;;4965263;28;91687;-85
2022/04/12 23:46:11;;;;;;;440.97;416.90;;;;;;;;;;4978052;28;91897;-84
2022/04/12 23:48:58;;;;;;;699.47;630.67;;;;;;;;;;4966102;28;91486;-84
2022/04/12 23:51:44;;;;;;;538.70;510.53;;;;;;;;;;4977914;28;94145;-83
2022/04/12 23:54:36;;;;;;;656.53;625.77;;;;;;;;;;4964164;28;94075;-84
2022/04/12 23:57:22;;;;;;;846.80;779.20;;;;;;;;;;4974027;28;91458;-84
